createdAt,value
2022-11-27T00:01:14.707Z,26.98
2022-11-27T00:03:42.068Z,27.92
2022-11-27T00:06:13.025Z,27.00
2022-11-27T00:08:39.827Z,25.27
2022-11-27T00:11:11.334Z,26.15
2022-11-27T00:13:37.853Z,27.38
2022-11-27T00:16:05.924Z,26.30
2022-11-27T00:18:32.895Z,26.35
2022-11-27T00:21:04.834Z,27.05
2022-11-27T00:23:32.972Z,27.20
2022-11-27T00:25:59.520Z,24.08
2022-11-27T00:28:26.097Z,25.90
2022-11-27T00:30:52.612Z,26.30
2022-11-27T00:33:19.292Z,25.27
2022-11-27T00:35:45.944Z,24.42
2022-11-27T00:38:12.472Z,23.45
2022-11-27T00:40:38.952Z,27.42
2022-11-27T00:43:05.636Z,25.83
2022-11-27T00:45:32.101Z,25.92
2022-11-27T00:47:58.643Z,25.10
2022-11-27T00:50:25.166Z,25.55
2022-11-27T00:52:51.780Z,25.58
2022-11-27T00:55:18.512Z,24.63
2022-11-27T00:57:45.364Z,28.40
2022-11-27T01:00:12.569Z,25.02
2022-11-27T01:02:39.108Z,25.45
2022-11-27T01:05:06.138Z,25.20
2022-11-27T01:07:32.665Z,28.00
2022-11-27T01:09:59.215Z,26.50
2022-11-27T01:12:25.725Z,25.75
2022-11-27T01:14:52.186Z,25.42
2022-11-27T01:17:18.665Z,24.30
2022-11-27T01:19:45.166Z,21.85
2022-11-27T01:22:11.737Z,25.20
2022-11-27T01:24:38.794Z,23.67
2022-11-27T01:27:05.487Z,21.88
2022-11-27T01:29:32.019Z,21.33
2022-11-27T01:31:58.588Z,23.85
2022-11-27T01:34:25.164Z,22.73
2022-11-27T01:36:51.799Z,24.02
2022-11-27T01:39:20.813Z,22.67
2022-11-27T01:41:48.721Z,24.92
2022-11-27T01:44:24.091Z,23.00
2022-11-27T01:46:58.449Z,22.60
2022-11-27T01:49:28.193Z,22.23
2022-11-27T01:52:06.566Z,20.63
2022-11-27T01:54:55.207Z,22.70
2022-11-27T01:57:25.474Z,20.58
2022-11-27T01:59:55.017Z,22.88
2022-11-27T02:02:21.552Z,21.13
2022-11-27T02:04:48.363Z,21.33
2022-11-27T02:07:15.127Z,23.05
2022-11-27T02:09:42.190Z,23.17
2022-11-27T02:12:27.640Z,22.13
2022-11-27T02:15:11.365Z,20.70
2022-11-27T02:17:41.604Z,22.35
2022-11-27T02:20:21.763Z,21.73
2022-11-27T02:23:09.855Z,22.83
2022-11-27T02:25:59.465Z,24.05
2022-11-27T02:28:43.068Z,22.48
2022-11-27T02:31:18.767Z,22.33
2022-11-27T02:33:54.247Z,23.48
2022-11-27T02:36:29.735Z,22.23
2022-11-27T02:39:05.206Z,22.08
2022-11-27T02:41:44.048Z,24.75
2022-11-27T02:44:11.533Z,25.48
2022-11-27T02:46:40.058Z,25.13
2022-11-27T02:49:12.133Z,25.15
2022-11-27T02:51:44.760Z,25.20
2022-11-27T02:54:18.342Z,27.30
2022-11-27T02:56:48.217Z,26.73
2022-11-27T02:59:17.635Z,25.55
2022-11-27T03:04:14.344Z,28.73
2022-11-27T03:06:46.096Z,26.58
2022-11-27T03:09:18.828Z,27.63
2022-11-27T03:11:46.089Z,26.70
2022-11-27T03:14:13.941Z,28.35
2022-11-27T03:16:55.091Z,28.55
2022-11-27T03:19:35.299Z,29.08
2022-11-27T03:22:04.806Z,29.80
2022-11-27T03:24:34.124Z,30.95
2022-11-27T03:27:00.904Z,30.80
2022-11-27T03:29:50.878Z,31.95
2022-11-27T03:32:18.094Z,30.27
2022-11-27T03:34:45.698Z,29.92
2022-11-27T03:37:12.326Z,31.80
2022-11-27T03:39:39.404Z,30.42
2022-11-27T03:42:18.536Z,30.35
2022-11-27T03:45:01.125Z,30.38
2022-11-27T03:47:40.166Z,30.02
2022-11-27T03:50:16.489Z,30.85
2022-11-27T03:53:10.875Z,32.30
2022-11-27T03:55:43.362Z,33.42
2022-11-27T03:58:23.278Z,31.02
2022-11-27T04:00:52.442Z,30.85
2022-11-27T04:03:27.564Z,33.40
2022-11-27T04:05:54.323Z,31.77
2022-11-27T04:08:20.930Z,34.38
2022-11-27T04:10:47.741Z,35.47
2022-11-27T04:13:14.620Z,34.17
2022-11-27T04:15:42.265Z,33.80
2022-11-27T04:18:09.008Z,31.98
2022-11-27T04:20:35.547Z,33.15
2022-11-27T04:23:03.116Z,33.28
2022-11-27T04:25:29.845Z,33.92
2022-11-27T04:27:56.528Z,31.63
2022-11-27T04:30:23.074Z,32.78
2022-11-27T04:32:49.654Z,33.95
2022-11-27T04:35:16.246Z,31.38
2022-11-27T04:37:42.794Z,32.47
2022-11-27T04:40:09.915Z,30.70
2022-11-27T04:42:36.625Z,32.83
2022-11-27T04:45:03.327Z,30.92
2022-11-27T04:47:30.293Z,30.08
2022-11-27T04:49:56.802Z,31.38
2022-11-27T04:52:23.329Z,34.15
2022-11-27T04:54:49.809Z,33.45
2022-11-27T04:57:16.470Z,32.05
2022-11-27T04:59:42.954Z,34.45
2022-11-27T05:02:09.614Z,31.52
2022-11-27T05:04:36.102Z,34.65
2022-11-27T05:07:02.576Z,33.83
2022-11-27T05:09:29.095Z,32.28
2022-11-27T05:11:55.607Z,33.67
2022-11-27T05:14:27.034Z,33.45
2022-11-27T05:16:55.166Z,32.58
2022-11-27T05:19:23.478Z,34.70
2022-11-27T05:21:50.912Z,30.83
2022-11-27T05:24:20.289Z,31.67
2022-11-27T05:26:47.563Z,32.65
2022-11-27T05:29:14.933Z,32.63
2022-11-27T05:31:42.037Z,30.88
2022-11-27T05:34:09.130Z,34.90
2022-11-27T05:36:36.099Z,31.48
2022-11-27T05:39:04.718Z,32.70
2022-11-27T05:41:31.213Z,32.78
2022-11-27T05:43:57.734Z,33.55
2022-11-27T05:46:24.252Z,35.03
2022-11-27T05:48:50.906Z,33.78
2022-11-27T05:51:18.511Z,31.15
2022-11-27T05:53:45.421Z,33.25
2022-11-27T05:56:15.074Z,34.50
2022-11-27T05:58:43.244Z,32.83
2022-11-27T06:01:11.133Z,34.70
2022-11-27T06:03:39.240Z,33.65
2022-11-27T06:06:10.866Z,34.80
2022-11-27T06:08:38.572Z,32.55
2022-11-27T06:11:12.945Z,34.30
2022-11-27T06:13:40.165Z,33.75
2022-11-27T06:16:15.151Z,32.72
2022-11-27T06:18:41.889Z,35.35
2022-11-27T06:21:10.089Z,33.80
2022-11-27T06:23:37.391Z,35.65
2022-11-27T06:26:15.763Z,35.85
2022-11-27T06:28:43.025Z,37.45
2022-11-27T06:31:17.306Z,34.72
2022-11-27T06:33:45.897Z,36.78
2022-11-27T06:36:12.478Z,34.92
2022-11-27T06:38:39.384Z,34.25
2022-11-27T06:41:08.771Z,33.72
2022-11-27T06:43:36.089Z,35.00
2022-11-27T06:46:04.934Z,34.80
2022-11-27T06:48:32.583Z,36.95
2022-11-27T06:51:03.534Z,35.72
2022-11-27T06:55:57.464Z,35.53
2022-11-27T06:58:29.410Z,34.17
2022-11-27T07:00:59.294Z,34.50
2022-11-27T07:03:26.486Z,34.90
2022-11-27T07:05:53.410Z,35.60
2022-11-27T07:08:20.066Z,33.55
2022-11-27T07:10:46.668Z,32.58
2022-11-27T07:13:13.176Z,35.60
2022-11-27T07:15:39.947Z,35.25
2022-11-27T07:18:06.466Z,32.80
2022-11-27T07:20:32.994Z,33.83
2022-11-27T07:22:59.456Z,34.78
2022-11-27T07:25:26.175Z,32.67
2022-11-27T07:27:52.789Z,30.73
2022-11-27T07:30:19.345Z,32.72
2022-11-27T07:32:45.852Z,34.45
2022-11-27T07:35:12.412Z,30.55
2022-11-27T07:37:38.979Z,33.17
2022-11-27T07:40:06.663Z,33.58
2022-11-27T07:42:38.320Z,31.63
2022-11-27T07:45:07.367Z,30.08
2022-11-27T07:47:33.873Z,34.40
2022-11-27T07:50:00.594Z,31.02
2022-11-27T07:52:27.663Z,30.67
2022-11-27T07:54:54.449Z,31.77
2022-11-27T07:57:21.415Z,30.48
2022-11-27T07:59:48.139Z,32.95
2022-11-27T08:02:15.175Z,33.22
2022-11-27T08:04:42.050Z,31.65
2022-11-27T08:07:08.850Z,34.08
2022-11-27T08:09:35.342Z,31.30
2022-11-27T08:12:01.822Z,31.80
2022-11-27T08:14:28.951Z,31.90
2022-11-27T08:16:55.756Z,34.60
2022-11-27T08:19:22.810Z,33.30
2022-11-27T08:21:49.325Z,31.92
2022-11-27T08:24:15.895Z,31.60
2022-11-27T08:26:42.396Z,33.53
2022-11-27T08:29:12.301Z,32.00
2022-11-27T08:31:39.066Z,34.28
2022-11-27T08:34:05.875Z,29.83
2022-11-27T08:36:32.418Z,34.88
2022-11-27T08:38:58.923Z,32.88
2022-11-27T08:41:25.485Z,33.30
2022-11-27T08:43:51.987Z,34.78
2022-11-27T08:46:18.547Z,34.00
2022-11-27T08:48:45.151Z,32.08
2022-11-27T08:51:14.167Z,32.35
2022-11-27T08:53:41.257Z,33.70
2022-11-27T08:56:16.097Z,32.50
2022-11-27T08:58:43.120Z,32.30
2022-11-27T09:01:15.739Z,31.95
2022-11-27T09:03:42.453Z,33.30
2022-11-27T09:06:11.774Z,32.67
2022-11-27T09:08:42.313Z,34.38
2022-11-27T09:11:10.838Z,33.60
2022-11-27T09:13:37.991Z,33.42
2022-11-27T09:16:05.308Z,32.10
2022-11-27T09:18:31.923Z,36.08
2022-11-27T09:21:02.779Z,32.63
2022-11-27T09:26:03.624Z,32.88
2022-11-27T09:28:31.827Z,31.77
2022-11-27T09:31:01.051Z,32.92
2022-11-27T09:33:29.579Z,34.47
2022-11-27T09:35:56.578Z,33.70
2022-11-27T09:38:23.878Z,31.65
2022-11-27T09:40:52.873Z,34.88
2022-11-27T09:43:29.505Z,34.55
2022-11-27T09:46:01.574Z,34.22
2022-11-27T09:48:37.135Z,33.03
2022-11-27T09:51:09.335Z,32.85
2022-11-27T09:53:46.502Z,32.08
2022-11-27T09:56:17.661Z,32.30
2022-11-27T09:58:49.574Z,32.75
2022-11-27T10:01:32.112Z,31.30
2022-11-27T10:04:03.004Z,31.65
2022-11-27T10:06:38.653Z,30.52
2022-11-27T10:09:39.000Z,32.88
2022-11-27T10:12:31.380Z,31.30
2022-11-27T10:15:13.978Z,32.65
2022-11-27T10:17:49.011Z,31.50
2022-11-27T10:20:29.060Z,31.42
2022-11-27T10:23:04.197Z,34.25
2022-11-27T10:25:45.187Z,33.25
2022-11-27T10:28:30.831Z,30.67
2022-11-27T10:31:16.054Z,29.92
2022-11-27T10:33:47.594Z,31.30
2022-11-27T10:36:18.975Z,30.67
2022-11-27T10:38:47.806Z,33.13
2022-11-27T10:41:49.429Z,30.48
2022-11-27T10:44:32.882Z,31.52
2022-11-27T10:47:05.631Z,30.30
2022-11-27T10:49:41.217Z,33.00
2022-11-27T10:52:17.481Z,32.00
2022-11-27T10:54:49.593Z,31.42
2022-11-27T10:57:43.907Z,30.50
2022-11-27T11:00:15.628Z,29.90
2022-11-27T11:02:42.477Z,28.63
2022-11-27T11:06:11.583Z,32.42
2022-11-27T11:08:18.240Z,31.08
2022-11-27T11:10:57.704Z,29.58
2022-11-27T11:13:28.040Z,30.05
2022-11-27T11:16:05.040Z,29.42
2022-11-27T11:18:34.571Z,30.88
2022-11-27T11:21:07.330Z,30.20
2022-11-27T11:23:40.487Z,28.58
2022-11-27T11:26:28.601Z,30.23
2022-11-27T11:28:58.959Z,30.80
2022-11-27T11:31:44.559Z,28.52
2022-11-27T11:34:22.619Z,29.83
2022-11-27T11:37:00.048Z,31.30
2022-11-27T11:39:29.840Z,29.20
2022-11-27T11:41:57.220Z,30.05
2022-11-27T11:44:30.965Z,29.38
2022-11-27T11:46:57.560Z,26.70
2022-11-27T11:49:29.325Z,27.63
2022-11-27T11:51:55.755Z,31.80
2022-11-27T11:55:12.150Z,32.58
2022-11-27T11:57:47.768Z,29.42
2022-11-27T12:00:28.050Z,31.17
2022-11-27T12:03:50.731Z,29.48
2022-11-27T12:06:42.598Z,30.42
2022-11-27T12:09:40.434Z,31.38
2022-11-27T12:12:36.383Z,32.25
2022-11-27T12:15:26.134Z,28.80
2022-11-27T12:18:07.133Z,32.25
2022-11-27T12:20:36.713Z,28.70
2022-11-27T12:23:44.745Z,28.88
2022-11-27T12:26:15.800Z,32.70
2022-11-27T12:28:58.962Z,31.73
2022-11-27T12:31:37.968Z,29.95
2022-11-27T12:34:14.952Z,31.35
2022-11-27T12:37:06.364Z,31.00
2022-11-27T12:40:14.496Z,29.77
2022-11-27T12:43:05.123Z,31.67
2022-11-27T12:45:53.542Z,31.45
2022-11-27T12:48:24.252Z,30.23
2022-11-27T12:50:56.364Z,29.48
2022-11-27T12:53:31.717Z,30.80
2022-11-27T12:56:13.996Z,29.90
2022-11-27T12:58:44.890Z,29.30
2022-11-27T13:01:17.127Z,30.20
2022-11-27T13:03:59.443Z,32.35
2022-11-27T13:06:31.404Z,30.77
2022-11-27T13:09:04.784Z,30.55
2022-11-27T13:11:38.130Z,32.53
2022-11-27T13:14:15.545Z,32.40
2022-11-27T13:17:08.942Z,31.45
2022-11-27T13:19:42.484Z,31.50
2022-11-27T13:22:13.401Z,32.67
2022-11-27T13:24:40.885Z,29.35
2022-11-27T13:27:16.820Z,30.10
2022-11-27T13:29:48.666Z,31.85
2022-11-27T13:32:22.760Z,31.60
2022-11-27T13:34:51.050Z,30.27
2022-11-27T13:37:40.893Z,29.85
2022-11-27T13:40:20.366Z,32.45
2022-11-27T13:42:55.299Z,28.80
2022-11-27T13:45:26.564Z,30.90
2022-11-27T13:47:54.250Z,29.75
2022-11-27T13:50:26.940Z,30.63
2022-11-27T13:53:00.204Z,31.13
2022-11-27T13:55:30.249Z,29.63
2022-11-27T13:57:59.576Z,30.00
2022-11-27T14:00:38.709Z,31.55
2022-11-27T14:03:06.723Z,31.88
2022-11-27T14:05:39.448Z,28.35
2022-11-27T14:08:24.171Z,30.13
2022-11-27T14:11:00.882Z,30.08
2022-11-27T14:16:05.079Z,31.83
2022-11-27T14:18:31.829Z,28.83
2022-11-27T14:21:02.324Z,27.17
2022-11-27T14:23:36.780Z,29.35
2022-11-27T14:26:19.941Z,30.40
2022-11-27T14:28:51.612Z,29.02
2022-11-27T14:31:36.486Z,30.23
2022-11-27T14:34:24.255Z,30.40
2022-11-27T14:36:52.851Z,28.48
2022-11-27T14:39:31.302Z,28.75
2022-11-27T14:42:03.021Z,29.35
2022-11-27T14:44:31.729Z,30.52
2022-11-27T14:47:02.333Z,30.30
2022-11-27T14:49:31.641Z,32.88
2022-11-27T14:52:03.314Z,31.48
2022-11-27T14:54:36.872Z,29.27
2022-11-27T14:57:05.253Z,35.53
2022-11-27T14:59:32.477Z,34.80
2022-11-27T15:02:15.558Z,32.92
2022-11-27T15:04:44.217Z,34.75
2022-11-27T15:07:33.065Z,33.05
2022-11-27T15:10:07.582Z,31.92
2022-11-27T15:12:46.244Z,32.83
2022-11-27T15:15:27.624Z,33.30
2022-11-27T15:18:00.599Z,33.20
2022-11-27T15:20:35.640Z,32.95
2022-11-27T15:23:02.749Z,34.05
2022-11-27T15:25:35.271Z,34.80
2022-11-27T15:28:02.307Z,32.72
2022-11-27T15:30:29.400Z,33.83
2022-11-27T15:32:56.195Z,34.28
2022-11-27T15:35:25.237Z,34.95
2022-11-27T15:37:52.887Z,34.65
2022-11-27T15:40:25.010Z,33.85
2022-11-27T15:42:51.612Z,31.58
2022-11-27T15:45:18.103Z,33.72
2022-11-27T15:47:45.203Z,33.60
2022-11-27T15:50:16.316Z,33.38
2022-11-27T15:52:43.306Z,33.20
2022-11-27T15:55:17.777Z,34.90
2022-11-27T15:57:45.088Z,34.95
2022-11-27T16:00:12.018Z,35.47
2022-11-27T16:02:39.681Z,34.33
2022-11-27T16:05:07.735Z,34.65
2022-11-27T16:07:34.528Z,31.40
2022-11-27T16:10:01.904Z,34.95
2022-11-27T16:12:28.376Z,31.80
2022-11-27T16:14:55.077Z,32.45
2022-11-27T16:17:21.697Z,33.65
2022-11-27T16:19:48.155Z,37.67
2022-11-27T16:22:15.319Z,33.47
2022-11-27T16:24:42.115Z,33.15
2022-11-27T16:27:08.791Z,33.67
2022-11-27T16:29:35.411Z,33.40
2022-11-27T16:32:02.277Z,34.38
2022-11-27T16:34:28.886Z,31.77
2022-11-27T16:36:55.444Z,35.28
2022-11-27T16:39:22.005Z,31.40
2022-11-27T16:41:48.515Z,34.13
2022-11-27T16:44:15.686Z,34.53
2022-11-27T16:46:44.620Z,34.33
2022-11-27T16:49:11.952Z,35.38
2022-11-27T16:51:39.444Z,35.50
2022-11-27T16:54:09.708Z,38.08
2022-11-27T16:56:38.676Z,36.58
2022-11-27T16:59:13.741Z,36.20
2022-11-27T17:01:42.298Z,37.80
2022-11-27T17:04:14.682Z,37.83
2022-11-27T17:06:41.141Z,39.90
2022-11-27T17:09:08.284Z,39.63
2022-11-27T17:11:37.679Z,40.60
2022-11-27T17:14:06.900Z,38.03
2022-11-27T17:16:34.613Z,37.63
2022-11-27T17:19:01.454Z,39.42
2022-11-27T17:21:31.373Z,41.28
2022-11-27T17:24:00.458Z,38.88
2022-11-27T17:26:30.100Z,43.83
2022-11-27T17:28:57.348Z,41.92
2022-11-27T17:31:26.903Z,42.00
2022-11-27T17:33:57.140Z,45.22
2022-11-27T17:36:25.379Z,42.88
2022-11-27T17:38:52.191Z,45.05
2022-11-27T17:41:19.175Z,43.20
2022-11-27T17:43:45.759Z,46.33
2022-11-27T17:46:17.371Z,39.88
2022-11-27T17:48:44.549Z,42.58
2022-11-27T17:51:11.194Z,43.22
2022-11-27T17:53:38.149Z,43.38
2022-11-27T17:56:06.859Z,43.50
2022-11-27T17:58:34.077Z,43.65
2022-11-27T18:01:01.420Z,44.85
2022-11-27T18:03:29.370Z,41.45
2022-11-27T18:05:56.909Z,43.25
2022-11-27T18:08:24.041Z,46.15
2022-11-27T18:10:51.149Z,44.47
2022-11-27T18:13:17.619Z,41.35
2022-11-27T18:15:44.138Z,42.67
2022-11-27T18:18:11.248Z,46.75
2022-11-27T18:20:37.771Z,42.72
2022-11-27T18:23:04.782Z,46.55
2022-11-27T18:25:31.720Z,43.40
2022-11-27T18:27:58.783Z,43.38
2022-11-27T18:30:25.797Z,41.08
2022-11-27T18:32:52.272Z,43.72
2022-11-27T18:35:18.999Z,39.47
2022-11-27T18:37:45.530Z,40.42
2022-11-27T18:40:12.946Z,42.22
2022-11-27T18:42:39.411Z,39.63
2022-11-27T18:45:12.497Z,48.60
2022-11-27T18:47:46.842Z,43.45
2022-11-27T18:50:13.353Z,39.22
2022-11-27T18:52:39.912Z,40.83
2022-11-27T18:55:06.848Z,40.08
2022-11-27T18:57:33.383Z,40.08
2022-11-27T18:59:59.903Z,44.15
2022-11-27T19:02:26.463Z,46.92
2022-11-27T19:04:53.058Z,44.17
2022-11-27T19:07:19.643Z,40.15
2022-11-27T19:09:46.249Z,43.20
2022-11-27T19:12:13.858Z,39.97
2022-11-27T19:14:40.636Z,41.92
2022-11-27T19:17:07.284Z,43.53
2022-11-27T19:19:54.413Z,39.95
2022-11-27T19:22:21.383Z,42.65
2022-11-27T19:24:48.008Z,42.25
2022-11-27T19:27:14.577Z,40.53
2022-11-27T19:29:41.505Z,40.17
2022-11-27T19:32:08.348Z,41.42
2022-11-27T19:34:34.959Z,39.33
2022-11-27T19:37:01.599Z,40.08
2022-11-27T19:39:28.835Z,40.65
2022-11-27T19:41:55.477Z,40.55
2022-11-27T19:44:22.030Z,38.72
2022-11-27T19:46:48.605Z,39.72
2022-11-27T19:49:17.936Z,38.78
2022-11-27T19:51:44.706Z,38.72
2022-11-27T19:54:13.290Z,40.67
2022-11-27T19:56:40.786Z,40.20
2022-11-27T19:59:08.618Z,39.35
2022-11-27T20:01:37.588Z,40.25
2022-11-27T20:04:04.640Z,38.13
2022-11-27T20:06:32.365Z,41.42
2022-11-27T20:09:02.061Z,40.58
2022-11-27T20:11:34.266Z,39.45
2022-11-27T20:14:02.291Z,39.22
2022-11-27T20:16:28.878Z,39.15
2022-11-27T20:18:55.826Z,38.05
2022-11-27T20:21:24.673Z,41.58
2022-11-27T20:23:52.725Z,41.40
2022-11-27T20:26:23.121Z,42.08
2022-11-27T20:28:50.351Z,41.10
2022-11-27T20:31:22.274Z,40.65
2022-11-27T20:33:48.951Z,41.80
2022-11-27T20:36:17.467Z,39.72
2022-11-27T20:38:44.179Z,38.97
2022-11-27T20:41:13.444Z,40.45
2022-11-27T20:43:40.669Z,42.85
2022-11-27T20:46:10.426Z,41.80
2022-11-27T20:48:37.084Z,48.05
2022-11-27T20:51:13.763Z,44.53
2022-11-27T20:56:11.752Z,37.90
2022-11-27T20:58:40.344Z,38.70
2022-11-27T21:01:19.688Z,40.72
2022-11-27T21:03:48.796Z,40.78
2022-11-27T21:06:16.555Z,41.45
2022-11-27T21:08:43.352Z,44.40
2022-11-27T21:11:14.186Z,49.25
2022-11-27T21:16:09.701Z,40.47
2022-11-27T21:18:36.552Z,40.83
2022-11-27T21:21:11.873Z,41.83
2022-11-27T21:23:39.990Z,42.75
2022-11-27T21:26:07.790Z,42.30
2022-11-27T21:28:34.772Z,40.85
2022-11-27T21:31:17.043Z,42.30
2022-11-27T21:33:47.015Z,40.08
2022-11-27T21:36:14.450Z,39.60
2022-11-27T21:38:41.119Z,41.25
2022-11-27T21:41:08.332Z,39.92
2022-11-27T21:43:34.972Z,42.08
2022-11-27T21:46:09.534Z,43.75
2022-11-27T21:48:36.102Z,42.33
2022-11-27T21:51:03.902Z,43.28
2022-11-27T21:53:31.466Z,45.10
2022-11-27T21:55:58.432Z,45.42
2022-11-27T21:58:25.434Z,42.85
2022-11-27T22:00:52.199Z,45.45
2022-11-27T22:03:18.762Z,47.28
2022-11-27T22:05:45.254Z,52.55
2022-11-27T22:08:11.775Z,54.20
2022-11-27T22:10:40.606Z,51.33
2022-11-27T22:13:07.073Z,51.47
2022-11-27T22:15:36.660Z,50.22
2022-11-27T22:18:03.174Z,53.17
2022-11-27T22:20:29.717Z,46.47
2022-11-27T22:22:56.637Z,51.60
2022-11-27T22:25:23.118Z,52.78
2022-11-27T22:27:49.622Z,52.55
2022-11-27T22:30:16.362Z,56.28
2022-11-27T22:32:42.928Z,50.25
2022-11-27T22:35:09.390Z,50.63
2022-11-27T22:37:35.922Z,55.55
2022-11-27T22:40:02.500Z,50.53
2022-11-27T22:42:29.093Z,53.63
2022-11-27T22:44:55.564Z,50.45
2022-11-27T22:47:22.133Z,48.58
2022-11-27T22:49:48.648Z,55.08
2022-11-27T22:52:15.144Z,51.72
2022-11-27T22:54:41.888Z,49.22
2022-11-27T22:57:08.490Z,47.38
2022-11-27T22:59:35.207Z,48.05
2022-11-27T23:02:03.281Z,47.42
2022-11-27T23:04:29.931Z,49.38
2022-11-27T23:06:56.471Z,49.50
2022-11-27T23:09:22.967Z,49.55
2022-11-27T23:11:49.984Z,48.00
2022-11-27T23:14:16.757Z,47.38
2022-11-27T23:16:43.676Z,48.00
2022-11-27T23:19:11.178Z,45.78
2022-11-27T23:21:38.855Z,47.97
2022-11-27T23:24:06.952Z,50.03
2022-11-27T23:26:33.955Z,52.10
2022-11-27T23:29:00.480Z,46.90
2022-11-27T23:31:31.501Z,49.05
2022-11-27T23:34:01.710Z,50.05
2022-11-27T23:36:29.287Z,50.05
2022-11-27T23:38:56.276Z,49.63
2022-11-27T23:41:24.507Z,49.72
2022-11-27T23:43:52.586Z,50.53
2022-11-27T23:46:23.291Z,48.55
2022-11-27T23:48:49.893Z,50.60
2022-11-27T23:51:23.573Z,50.53
2022-11-27T23:53:50.496Z,52.58
2022-11-27T23:56:21.242Z,50.58
2022-11-27T23:58:48.312Z,53.25
